X  Close Metar Aviation Weather Data     EBBR Brussels Airport
Temperature
4°C Temperature
2°C Dewpoint
87% Humidity



Wind
5 KM/H
3 MPH
1 M/S
3 KTS



80°
East
Current Conditions

Clear Clear
Pressure 1029.92 (hPa) - 30.41 (inHg)
Visibility 5 (mile) - 8 (km)
Airport
Airport-code EBBR

Location: Brussels Airport
Distance: 14 (km)

Metar:
EBBR 012220Z 08003KT 8000 NSC 04/02 Q1030 TEMPO 4000 BR

Time: 2021-03-01 23:20 CET